Time;durP1;ratioP1;P1;durP2;ratioP2;P2;SDS_P1;SDS_P2;PMS_P1;PMS_P2;Temp;Humidity;BMP_temperature;BMP_pressure;BME280_temperature;BME280_humidity;BME280_pressure;Samples;Min_cycle;Max_cycle;Signal;HPM_P1;HPM_P2
2021/10/16 07:30:57;;;;;;;16.10;7.32;;;;;;;6.78;80.80;99443.44;2617487;54;20050;-65
2021/10/16 07:33:26;;;;;;;19.58;7.95;;;;;;;6.89;80.48;99445.81;2622872;36;5003190;-65
2021/10/16 07:41:09;;;;;;;11.98;7.93;;;;;;;7.34;79.11;99437.72;2691774;36;224861;-64
2021/10/16 08:05:01;;;;;;;9.27;7.93;;;;;;;8.07;76.02;99452.16;2621772;54;20010;-65
2021/10/16 08:07:31;;;;;;;9.98;8.02;;;;;;;8.03;75.72;99449.03;2622546;36;20057;-65
2021/10/16 08:10:02;;;;;;;9.15;7.70;;;;;;;8.05;76.20;99452.34;2688775;36;337233;-64
2021/10/16 08:12:35;;;;;;;9.60;8.10;;;;;;;8.09;76.04;99451.03;2723280;36;221862;-64
2021/10/16 08:15:05;;;;;;;9.45;8.18;;;;;;;8.16;76.29;99449.41;2622023;54;20025;-64
2021/10/16 08:17:35;;;;;;;11.98;8.68;;;;;;;8.25;75.86;99449.44;2621962;54;20022;-65
2021/10/16 08:20:08;;;;;;;9.77;8.40;;;;;;;8.29;76.02;99451.56;2622724;38;20524;-65
2021/10/16 08:22:41;;;;;;;11.57;9.32;;;;;;;8.35;75.93;99447.44;2622335;54;20122;-65
2021/10/16 08:25:12;;;;;;;13.73;10.20;;;;;;;8.46;76.57;99452.44;2622405;54;20026;-65
2021/10/16 08:27:42;;;;;;;10.60;9.18;;;;;;;8.59;75.98;99452.78;2622601;54;20038;-65
2021/10/16 08:30:12;;;;;;;11.30;9.38;;;;;;;8.70;76.00;99454.28;2622747;38;20449;-65
2021/10/16 08:32:42;;;;;;;15.70;10.20;;;;;;;8.80;75.49;99454.09;2622092;54;20042;-65
2021/10/16 08:35:15;;;;;;;13.50;10.55;;;;;;;8.84;75.47;99456.25;2622697;38;20445;-65
2021/10/16 08:37:44;;;;;;;13.55;9.90;;;;;;;8.96;75.83;99456.72;2622414;54;20065;-65
2021/10/16 08:40:14;;;;;;;15.77;10.38;;;;;;;9.13;75.62;99458.34;2621591;51;20065;-65
2021/10/16 08:42:43;;;;;;;12.75;9.32;;;;;;;9.28;74.90;99460.31;2622205;38;20321;-65
2021/10/16 08:45:13;;;;;;;12.57;9.88;;;;;;;9.36;75.12;99450.56;2622133;54;20142;-65
2021/10/16 08:47:43;;;;;;;15.48;11.32;;;;;;;9.50;74.92;99459.59;2621437;47;20169;-65
2021/10/16 08:50:16;;;;;;;17.95;11.82;;;;;;;9.69;74.58;99447.81;2621298;46;20033;-65
2021/10/16 08:52:45;;;;;;;15.55;11.50;;;;;;;9.86;74.47;99446.75;2621970;54;20568;-66
2021/10/16 08:55:15;;;;;;;17.23;12.15;;;;;;;10.00;74.24;99458.44;2619519;54;20078;-65
2021/10/16 08:57:47;;;;;;;15.63;11.35;;;;;;;10.08;73.51;99455.75;2621016;54;20077;-66
2021/10/16 09:00:42;;;;;;;16.17;11.32;;;;;;;10.22;73.26;99456.00;2622034;54;20061;-65
2021/10/16 09:03:20;;;;;;;16.08;12.60;;;;;;;10.34;73.18;99438.78;2621585;54;20661;-66
2021/10/16 09:06:11;;;;;;;15.25;11.25;;;;;;;10.42;72.23;99444.00;2618501;54;20027;-65
2021/10/16 09:08:44;;;;;;;18.17;11.48;;;;;;;10.48;72.63;99445.13;2618385;39;20716;-65
2021/10/16 09:11:19;;;;;;;15.18;10.88;;;;;;;10.59;72.45;99453.47;2618287;54;20035;-65
2021/10/16 09:13:50;;;;;;;16.52;11.95;;;;;;;10.71;71.93;99450.41;2618330;54;20038;-65
2021/10/16 09:16:25;;;;;;;20.23;12.55;;;;;;;10.73;71.82;99449.22;2618636;54;20194;-65
2021/10/16 09:18:57;;;;;;;16.05;10.27;;;;;;;10.71;71.52;99451.22;2622409;39;20538;-65
2021/10/16 09:21:35;;;;;;;17.90;11.77;;;;;;;10.83;71.87;99443.69;2621432;54;20038;-66
2021/10/16 09:24:17;;;;;;;15.23;9.95;;;;;;;10.86;71.47;99443.34;2620742;54;20085;-65
2021/10/16 09:26:49;;;;;;;17.42;11.25;;;;;;;10.92;71.27;99442.63;2621273;54;20133;-65
2021/10/16 09:29:20;;;;;;;18.05;10.35;;;;;;;10.92;70.72;99439.97;2621158;54;20069;-65
2021/10/16 09:31:51;;;;;;;13.85;9.32;;;;;;;10.94;70.59;99442.41;2620048;54;20035;-65
2021/10/16 09:34:26;;;;;;;12.10;9.27;;;;;;;10.98;71.62;99441.91;2618461;54;20026;-65
2021/10/16 09:37:07;;;;;;;14.90;10.95;;;;;;;11.10;70.90;99435.19;2618624;54;20576;-65
2021/10/16 09:39:38;;;;;;;16.60;10.43;;;;;;;11.16;70.59;99439.75;2618441;54;20110;-65
2021/10/16 09:42:09;;;;;;;16.48;10.20;;;;;;;11.20;70.70;99437.56;2618539;54;20636;-65
2021/10/16 09:44:44;;;;;;;14.73;10.70;;;;;;;11.22;70.77;99438.19;2618655;54;20031;-65
2021/10/16 09:47:17;;;;;;;12.32;10.07;;;;;;;11.28;70.10;99423.41;2618728;54;20038;-65
2021/10/16 09:49:49;;;;;;;12.20;9.68;;;;;;;11.36;69.95;99429.44;2619807;54;20090;-67
2021/10/16 09:52:23;;;;;;;11.27;9.05;;;;;;;11.42;70.69;99433.19;2620891;54;20181;-65
2021/10/16 09:54:53;;;;;;;12.70;9.60;;;;;;;11.57;70.30;99427.88;2621002;54;20163;-65
2021/10/16 09:57:22;;;;;;;13.35;9.48;;;;;;;11.70;69.91;99414.81;2621470;54;20061;-66
2021/10/16 09:59:52;;;;;;;15.30;9.63;;;;;;;11.76;69.51;99421.22;2619840;54;20099;-65
2021/10/16 10:02:22;;;;;;;10.65;8.70;;;;;;;11.80;68.82;99419.84;2618681;54;20053;-65
2021/10/16 10:04:53;;;;;;;13.77;9.32;;;;;;;11.88;69.14;99417.94;2618426;54;20041;-65
2021/10/16 10:07:28;;;;;;;16.38;8.50;;;;;;;11.97;68.80;99415.16;2618657;39;20433;-65
2021/10/16 10:10:00;;;;;;;9.63;7.70;;;;;;;12.04;68.86;99416.03;2618218;54;20106;-65
2021/10/16 10:12:30;;;;;;;13.77;8.68;;;;;;;12.17;69.00;99416.22;2617760;39;20471;-65
2021/10/16 10:15:00;;;;;;;9.57;8.27;;;;;;;12.29;67.94;99408.59;2618208;54;20634;-65
2021/10/16 10:17:32;;;;;;;10.95;7.45;;;;;;;12.40;68.19;99406.22;2618212;54;20126;-65
2021/10/16 10:20:05;;;;;;;9.52;8.18;;;;;;;12.57;68.29;99405.97;2618146;54;20130;-65
2021/10/16 10:22:40;;;;;;;13.02;10.50;;;;;;;12.79;67.71;99399.66;2617279;51;20134;-65
2021/10/16 10:25:23;;;;;;;8.43;7.30;;;;;;;13.00;65.91;99403.25;2618203;54;20529;-65
2021/10/16 10:27:53;;;;;;;12.98;7.20;;;;;;;13.09;64.84;99391.47;2618228;39;20298;-65
2021/10/16 10:30:42;;;;;;;9.52;6.82;;;;;;;13.15;65.64;99390.72;2618406;39;20529;-64
2021/10/16 10:33:24;;;;;;;11.38;7.38;;;;;;;13.25;64.97;99388.53;2617820;54;20538;-64
2021/10/16 10:36:24;;;;;;;8.10;5.90;;;;;;;13.31;64.24;99384.31;2618163;54;20534;-64
2021/10/16 10:38:56;;;;;;;8.15;6.45;;;;;;;13.45;63.42;99388.66;2618152;54;20026;-64
2021/10/16 10:41:35;;;;;;;8.68;6.90;;;;;;;13.44;63.57;99378.25;2618234;54;20073;-65
2021/10/16 10:44:05;;;;;;;10.05;6.30;;;;;;;13.51;63.12;99382.56;2617354;47;20050;-64
2021/10/16 10:46:34;;;;;;;7.85;6.40;;;;;;;13.58;63.56;99374.63;2619099;39;20461;-65
2021/10/16 10:49:13;;;;;;;6.60;4.63;;;;;;;13.68;63.19;99376.94;2618004;54;20178;-65
2021/10/16 10:51:43;;;;;;;7.63;6.18;;;;;;;13.67;61.86;99372.59;2618137;54;20043;-65
2021/10/16 10:54:17;;;;;;;8.05;6.00;;;;;;;13.56;61.87;99374.00;2617967;54;20057;-65
2021/10/16 10:56:52;;;;;;;5.85;4.78;;;;;;;13.45;62.48;99364.75;2617772;47;20142;-65
2021/10/16 10:59:21;;;;;;;8.07;5.22;;;;;;;13.40;62.06;99369.84;2618012;54;20034;-65
2021/10/16 11:02:03;;;;;;;8.55;6.13;;;;;;;13.28;62.85;99369.56;2618188;54;20026;-65
2021/10/16 11:04:46;;;;;;;8.60;5.57;;;;;;;13.45;62.49;99366.59;2617810;54;20035;-65
2021/10/16 11:07:20;;;;;;;5.97;4.40;;;;;;;13.54;60.50;99366.22;2617432;54;20077;-65
2021/10/16 11:09:52;;;;;;;4.50;3.90;;;;;;;13.54;60.58;99368.88;2618220;54;20026;-65
2021/10/16 11:12:30;;;;;;;8.57;4.75;;;;;;;13.67;61.27;99362.78;2617376;54;20581;-65
2021/10/16 11:15:01;;;;;;;3.58;3.28;;;;;;;13.75;60.36;99361.81;2617964;54;20031;-65
2021/10/16 11:17:42;;;;;;;4.55;3.60;;;;;;;13.91;60.55;99355.31;2617973;54;20035;-65
2021/10/16 11:20:16;;;;;;;7.63;4.50;;;;;;;13.97;59.75;99359.84;2617953;54;20061;-65
2021/10/16 11:22:55;;;;;;;4.30;3.45;;;;;;;13.93;59.71;99358.59;2617771;54;20158;-65
2021/10/16 11:25:29;;;;;;;6.82;3.80;;;;;;;13.94;58.76;99346.94;2617424;47;20130;-64
2021/10/16 11:28:10;;;;;;;5.82;4.30;;;;;;;13.93;59.04;99353.28;2617891;54;20042;-65
2021/10/16 11:30:41;;;;;;;6.60;4.20;;;;;;;13.83;59.54;99348.34;2617880;54;20038;-64
2021/10/16 11:33:13;;;;;;;4.78;3.90;;;;;;;13.86;59.93;99345.28;2617537;54;20129;-65
2021/10/16 11:35:45;;;;;;;6.30;4.32;;;;;;;13.97;59.89;99339.41;2617883;54;20026;-65
2021/10/16 11:38:16;;;;;;;4.72;3.53;;;;;;;14.05;59.36;99347.19;2617980;54;20601;-65
2021/10/16 11:40:49;;;;;;;3.92;3.40;;;;;;;14.00;59.06;99340.81;2617782;39;20468;-65
2021/10/16 11:43:20;;;;;;;4.57;4.07;;;;;;;14.06;59.13;99330.19;2617638;54;20039;-65
2021/10/16 11:45:52;;;;;;;7.57;6.45;;;;;;;14.20;58.80;99333.69;2618061;54;20034;-64
2021/10/16 11:48:24;;;;;;;10.95;8.30;;;;;;;14.21;58.60;99331.88;2617951;54;20129;-65
2021/10/16 11:50:55;;;;;;;4.65;3.60;;;;;;;14.27;58.47;99323.88;2618074;54;20081;-64
2021/10/16 11:53:26;;;;;;;8.38;3.95;;;;;;;14.30;58.54;99323.47;2618153;54;20039;-65
2021/10/16 11:56:00;;;;;;;5.47;3.95;;;;;;;14.42;58.90;99326.34;2618824;54;20127;-65
2021/10/16 11:58:32;;;;;;;3.60;3.20;;;;;;;14.51;58.45;99319.81;2621694;54;20549;-65
2021/10/16 12:01:03;;;;;;;4.85;3.75;;;;;;;14.58;57.34;99314.50;2619564;54;20089;-64
2021/10/16 12:03:38;;;;;;;3.92;3.30;;;;;;;14.61;57.14;99319.41;2617018;47;20026;-65
2021/10/16 12:06:11;;;;;;;4.55;3.58;;;;;;;14.72;57.25;99313.47;2618162;54;20033;-65
2021/10/16 12:08:45;;;;;;;4.18;2.70;;;;;;;14.77;56.28;99296.88;2618022;54;20077;-65
2021/10/16 12:11:21;;;;;;;4.93;3.35;;;;;;;14.76;55.64;99292.59;2617917;54;20043;-65
2021/10/16 12:13:59;;;;;;;3.83;2.53;;;;;;;15.03;54.70;99296.81;2617207;54;20174;-65
2021/10/16 12:16:35;;;;;;;5.32;3.22;;;;;;;14.96;55.03;99290.69;2617190;54;20082;-65
2021/10/16 12:19:07;;;;;;;3.33;2.40;;;;;;;14.82;55.47;99289.91;2617774;54;20038;-65
2021/10/16 12:21:39;;;;;;;3.45;2.70;;;;;;;14.95;55.16;99281.06;2617930;54;20082;-65
2021/10/16 12:24:14;;;;;;;5.47;2.58;;;;;;;14.99;54.54;99284.16;2617038;54;20027;-65
2021/10/16 12:26:48;;;;;;;3.08;2.53;;;;;;;15.19;55.18;99282.22;2617821;54;20038;-65
2021/10/16 12:29:30;;;;;;;4.07;2.50;;;;;;;15.39;54.79;99290.16;2617947;54;20154;-64
2021/10/16 12:32:00;;;;;;;6.50;3.40;;;;;;;15.68;54.70;99283.47;2618670;54;20114;-65
2021/10/16 12:34:31;;;;;;;5.22;3.80;;;;;;;15.91;53.01;99287.41;2618599;54;20038;-64
2021/10/16 12:37:02;;;;;;;5.05;3.85;;;;;;;15.73;52.78;99283.63;2618169;54;20054;-64
2021/10/16 12:39:34;;;;;;;6.53;4.75;;;;;;;15.66;52.82;99287.38;2618559;54;20061;-65
2021/10/16 12:42:16;;;;;;;6.57;4.43;;;;;;;15.60;53.58;99286.34;2617758;54;20113;-64
2021/10/16 12:44:46;;;;;;;4.35;3.95;;;;;;;15.63;53.16;99288.56;2618189;54;20110;-65
2021/10/16 12:47:18;;;;;;;5.13;3.85;;;;;;;15.52;53.52;99283.94;2618491;54;20026;-64
2021/10/16 12:49:50;;;;;;;4.70;3.67;;;;;;;15.21;54.12;99276.69;2618539;54;20031;-65
2021/10/16 12:52:32;;;;;;;6.03;5.43;;;;;;;15.30;54.10;99273.56;2619004;39;20513;-65
2021/10/16 12:55:03;;;;;;;6.32;4.32;;;;;;;15.25;54.08;99277.91;2618680;54;20114;-64
2021/10/16 12:57:35;;;;;;;5.40;3.60;;;;;;;15.12;54.05;99278.78;2618710;54;20167;-64
2021/10/16 13:00:06;;;;;;;4.78;3.70;;;;;;;15.02;54.50;99273.91;2618485;54;20046;-65
2021/10/16 13:02:35;;;;;;;5.50;2.70;;;;;;;14.90;54.14;99277.38;2618304;54;20568;-64
2021/10/16 13:05:06;;;;;;;5.95;3.50;;;;;;;14.88;54.26;99271.47;2618400;54;20019;-64
2021/10/16 13:07:35;;;;;;;8.73;4.03;;;;;;;14.83;54.28;99267.59;2618448;54;20030;-64
2021/10/16 13:10:05;;;;;;;3.88;3.10;;;;;;;14.75;54.24;99264.34;2618307;54;20114;-64
2021/10/16 13:12:41;;;;;;;6.72;3.85;;;;;;;14.64;54.81;99265.78;2618281;54;20580;-64
2021/10/16 13:15:12;;;;;;;4.57;3.67;;;;;;;14.57;55.30;99254.31;2617889;54;20129;-64
2021/10/16 13:17:42;;;;;;;5.35;3.33;;;;;;;14.44;55.71;99256.97;2618480;54;20030;-64
2021/10/16 13:20:14;;;;;;;3.15;2.53;;;;;;;14.38;56.22;99259.44;2618326;54;20023;-64
2021/10/16 13:22:44;;;;;;;5.35;2.70;;;;;;;14.19;56.23;99265.59;2618130;54;20085;-64
2021/10/16 13:25:16;;;;;;;5.22;2.90;;;;;;;14.06;56.40;99265.59;2618454;54;20081;-63
2021/10/16 13:27:49;;;;;;;6.70;3.00;;;;;;;14.04;56.58;99256.97;2618427;54;20038;-64
2021/10/16 13:30:20;;;;;;;4.20;2.30;;;;;;;14.03;56.72;99256.16;2618085;39;20450;-64
2021/10/16 13:32:52;;;;;;;5.05;2.63;;;;;;;13.92;57.30;99256.78;2618293;54;20134;-64
2021/10/16 13:35:21;;;;;;;4.47;3.30;;;;;;;14.12;57.06;99259.44;2618378;54;20027;-63
2021/10/16 13:37:51;;;;;;;5.00;3.80;;;;;;;14.16;56.99;99262.50;2618438;54;20034;-64
2021/10/16 13:40:21;;;;;;;9.32;4.18;;;;;;;14.16;56.93;99260.66;2618590;54;20026;-64
2021/10/16 13:42:53;;;;;;;4.45;3.67;;;;;;;14.17;57.29;99256.19;2618460;54;20038;-63
2021/10/16 13:45:23;;;;;;;6.60;3.85;;;;;;;14.13;56.76;99255.78;2618464;54;20126;-63
2021/10/16 13:47:52;;;;;;;5.00;3.35;;;;;;;14.00;57.21;99250.44;2618446;54;20042;-64
2021/10/16 13:50:22;;;;;;;5.32;3.13;;;;;;;13.93;57.35;99249.63;2618383;54;20146;-63
2021/10/16 13:52:55;;;;;;;6.95;3.30;;;;;;;13.83;57.13;99250.81;2618270;54;20118;-63
2021/10/16 13:55:25;;;;;;;5.60;3.78;;;;;;;13.80;57.52;99256.56;2617730;54;20114;-64
2021/10/16 13:57:57;;;;;;;4.45;3.70;;;;;;;13.81;57.14;99250.22;2618315;54;20039;-63
2021/10/16 14:00:27;;;;;;;4.40;2.90;;;;;;;13.82;57.05;99259.00;2618013;54;20026;-63
2021/10/16 14:02:56;;;;;;;4.50;3.15;;;;;;;13.88;56.42;99253.72;2618212;54;20082;-64
2021/10/16 14:05:26;;;;;;;4.90;3.75;;;;;;;13.90;56.69;99256.16;2618765;54;20035;-64
2021/10/16 14:07:55;;;;;;;6.72;3.63;;;;;;;13.94;56.61;99254.75;2618154;54;20122;-65
2021/10/16 14:10:25;;;;;;;5.03;3.90;;;;;;;13.94;56.57;99249.41;2618637;54;20577;-65
2021/10/16 14:12:57;;;;;;;5.13;3.40;;;;;;;13.93;56.68;99246.97;2618241;54;20046;-64
2021/10/16 14:15:27;;;;;;;5.75;3.47;;;;;;;13.91;56.87;99254.31;2617858;46;20051;-63
2021/10/16 14:17:56;;;;;;;11.43;8.48;;;;;;;13.91;57.32;99243.69;2618739;54;20158;-63
2021/10/16 14:20:26;;;;;;;11.27;6.70;;;;;;;13.90;56.83;99244.72;2618320;54;20040;-63
2021/10/16 14:22:55;;;;;;;7.07;3.30;;;;;;;13.86;57.04;99242.47;2618242;54;20149;-64
2021/10/16 14:25:25;;;;;;;4.95;3.42;;;;;;;13.87;56.85;99252.06;2618257;54;20038;-64
2021/10/16 14:27:57;;;;;;;6.82;3.85;;;;;;;13.85;57.13;99243.50;2618422;54;20050;-64
2021/10/16 14:30:27;;;;;;;5.78;3.42;;;;;;;13.83;56.91;99242.84;2618335;54;20129;-64
2021/10/16 14:32:57;;;;;;;4.85;3.75;;;;;;;13.90;57.29;99248.19;2618061;54;20122;-63
2021/10/16 14:35:26;;;;;;;6.55;3.40;;;;;;;13.87;56.79;99245.94;2617528;54;20852;-64
2021/10/16 14:37:56;;;;;;;5.13;3.15;;;;;;;13.91;56.79;99251.66;2618351;54;20067;-63
2021/10/16 14:40:25;;;;;;;5.75;4.05;;;;;;;13.94;57.24;99243.28;2618245;54;20039;-63
2021/10/16 14:42:57;;;;;;;6.10;3.50;;;;;;;13.99;56.93;99240.84;2618134;54;20062;-63
2021/10/16 14:45:27;;;;;;;6.25;3.70;;;;;;;14.00;56.75;99245.13;2618184;54;20045;-63
2021/10/16 14:47:56;;;;;;;5.95;3.83;;;;;;;13.99;56.71;99238.19;2618209;54;20026;-64
2021/10/16 14:50:26;;;;;;;7.28;3.78;;;;;;;13.98;57.09;99244.53;2618609;54;20030;-63
2021/10/16 14:52:56;;;;;;;8.10;4.55;;;;;;;13.95;57.17;99239.59;2621431;54;20039;-64
2021/10/16 14:55:28;;;;;;;8.75;4.00;;;;;;;13.90;57.40;99245.53;2620525;54;20177;-64
2021/10/16 14:58:03;;;;;;;9.15;3.80;;;;;;;13.85;57.79;99246.16;2618539;54;20049;-64
2021/10/16 15:00:33;;;;;;;4.75;3.38;;;;;;;13.81;57.58;99246.75;2618131;54;20026;-63
2021/10/16 15:03:03;;;;;;;4.40;3.63;;;;;;;13.80;57.62;99245.13;2617395;54;20050;-63
2021/10/16 15:05:49;;;;;;;6.28;3.60;;;;;;;13.72;57.47;99245.31;2618224;54;20022;-63
2021/10/16 15:08:18;;;;;;;5.57;3.35;;;;;;;13.67;57.56;99248.56;2618264;54;20126;-63
2021/10/16 15:10:51;;;;;;;8.75;4.03;;;;;;;13.62;57.71;99251.00;2617655;54;20022;-63
2021/10/16 15:13:24;;;;;;;6.70;3.58;;;;;;;13.52;58.06;99246.09;2617907;54;20034;-63
2021/10/16 15:15:54;;;;;;;3.92;3.05;;;;;;;13.52;58.10;99245.28;2617782;47;20400;-63
2021/10/16 15:18:23;;;;;;;6.47;3.63;;;;;;;13.51;58.54;99243.63;2618158;54;20031;-63
2021/10/16 15:20:53;;;;;;;6.05;3.33;;;;;;;13.46;57.97;99246.06;2618085;54;20042;-63
2021/10/16 15:23:22;;;;;;;4.80;4.00;;;;;;;13.44;58.68;99242.81;2617775;54;20146;-64
2021/10/16 15:25:53;;;;;;;7.22;4.38;;;;;;;13.50;58.75;99242.81;2618090;54;20037;-64
2021/10/16 15:28:25;;;;;;;4.65;3.50;;;;;;;13.47;58.45;99251.19;2618589;39;20540;-63
2021/10/16 15:30:55;;;;;;;6.28;4.28;;;;;;;13.48;58.76;99249.34;2618398;54;20073;-63
2021/10/16 15:33:24;;;;;;;7.57;4.28;;;;;;;13.43;58.56;99246.44;2617242;47;20035;-64
2021/10/16 15:35:54;;;;;;;5.65;3.85;;;;;;;13.44;59.00;99253.44;2618015;54;20142;-63
2021/10/16 15:38:24;;;;;;;6.43;4.10;;;;;;;13.38;58.90;99258.50;2618180;54;20134;-63
2021/10/16 15:40:53;;;;;;;6.50;3.85;;;;;;;13.35;59.30;99255.44;2618230;54;20035;-64
2021/10/16 15:43:25;;;;;;;10.38;3.67;;;;;;;13.34;59.28;99257.25;2617795;54;20614;-65
2021/10/16 15:45:55;;;;;;;7.32;3.35;;;;;;;13.31;59.43;99254.19;2618163;54;20046;-64
2021/10/16 15:48:26;;;;;;;6.40;4.28;;;;;;;13.28;59.35;99247.44;2618142;54;20092;-65
2021/10/16 15:50:57;;;;;;;7.70;3.75;;;;;;;13.29;59.42;99245.59;2618003;54;20026;-65
2021/10/16 15:53:28;;;;;;;6.88;4.22;;;;;;;13.25;59.21;99250.50;2617421;54;20082;-64
2021/10/16 15:55:58;;;;;;;5.80;3.60;;;;;;;13.19;59.70;99242.50;2618058;54;20031;-65
2021/10/16 15:58:30;;;;;;;8.05;3.80;;;;;;;13.16;59.80;99240.22;2617465;54;20030;-64
2021/10/16 16:00:59;;;;;;;6.47;3.42;;;;;;;13.12;59.63;99240.63;2618874;31;20502;-64
2021/10/16 16:03:29;;;;;;;5.22;3.65;;;;;;;13.08;59.67;99238.56;2617971;54;20073;-64
2021/10/16 16:05:59;;;;;;;9.65;4.05;;;;;;;13.04;59.72;99237.31;2618635;54;20102;-64
2021/10/16 16:08:28;;;;;;;7.63;3.78;;;;;;;12.97;60.03;99228.50;2618844;54;20055;-64
2021/10/16 16:10:58;;;;;;;4.47;4.07;;;;;;;12.94;59.60;99234.19;2618922;54;20174;-65
2021/10/16 16:13:30;;;;;;;7.63;4.32;;;;;;;12.87;60.32;99221.72;2618758;54;20071;-64
2021/10/16 16:16:00;;;;;;;5.68;3.97;;;;;;;12.82;60.01;99228.66;2619403;47;20042;-64
2021/10/16 16:18:29;;;;;;;6.03;4.35;;;;;;;12.83;60.32;99227.63;2619948;54;20038;-65
2021/10/16 16:20:59;;;;;;;7.60;4.40;;;;;;;12.84;60.74;99234.56;2619658;54;20162;-64
2021/10/16 16:23:31;;;;;;;8.07;4.35;;;;;;;12.83;60.30;99238.25;2618580;54;20031;-65
2021/10/16 16:26:01;;;;;;;5.90;3.53;;;;;;;12.78;60.91;99233.53;2619229;39;20514;-65
2021/10/16 16:28:33;;;;;;;5.85;3.83;;;;;;;12.73;60.74;99238.56;2619126;54;20034;-64
2021/10/16 16:31:02;;;;;;;6.07;3.70;;;;;;;12.67;61.40;99242.03;2618427;54;20070;-64
2021/10/16 16:33:32;;;;;;;6.60;4.40;;;;;;;12.61;61.39;99233.03;2619240;39;20415;-64
2021/10/16 16:36:02;;;;;;;7.28;4.40;;;;;;;12.55;61.66;99239.09;2619282;39;20513;-65
2021/10/16 16:38:31;;;;;;;6.43;4.25;;;;;;;12.53;61.84;99245.59;2618983;54;20042;-65
2021/10/16 16:41:01;;;;;;;9.27;4.78;;;;;;;12.51;62.00;99247.63;2618783;54;20173;-64
2021/10/16 16:43:33;;;;;;;8.13;4.88;;;;;;;12.51;62.64;99244.97;2618761;54;20050;-64
2021/10/16 16:46:03;;;;;;;4.57;3.88;;;;;;;12.47;62.38;99241.91;2619138;54;20038;-64
2021/10/16 16:48:32;;;;;;;8.23;4.75;;;;;;;12.47;62.86;99246.38;2618827;54;20034;-64
2021/10/16 16:51:02;;;;;;;7.03;5.03;;;;;;;12.44;62.64;99255.53;2618370;54;20034;-64
2021/10/16 16:53:32;;;;;;;5.47;4.70;;;;;;;12.38;63.14;99253.66;2619018;39;20513;-65
2021/10/16 16:56:01;;;;;;;7.00;5.03;;;;;;;12.29;63.55;99258.31;2618938;54;20150;-64
2021/10/16 16:58:33;;;;;;;9.60;5.65;;;;;;;12.21;63.88;99257.63;2618838;54;20107;-65
2021/10/16 17:01:03;;;;;;;8.40;5.63;;;;;;;12.13;64.51;99262.03;2619322;54;20038;-65
2021/10/16 17:03:33;;;;;;;6.80;5.68;;;;;;;12.12;64.83;99267.53;2620460;31;20546;-65
2021/10/16 17:06:03;;;;;;;6.10;5.05;;;;;;;12.05;64.75;99270.13;2619877;54;20090;-64
2021/10/16 17:08:33;;;;;;;8.98;4.95;;;;;;;11.99;65.15;99275.34;2619689;54;20038;-64
2021/10/16 17:11:02;;;;;;;7.07;5.57;;;;;;;11.88;66.00;99279.34;2619820;54;20038;-64
2021/10/16 17:13:34;;;;;;;11.18;6.30;;;;;;;11.85;65.89;99279.72;2618576;54;20554;-65
2021/10/16 17:16:04;;;;;;;10.55;5.40;;;;;;;11.77;66.14;99287.75;2618653;54;20077;-64
2021/10/16 17:18:34;;;;;;;8.65;5.35;;;;;;;11.63;66.75;99284.13;2618367;47;20038;-65
2021/10/16 17:21:03;;;;;;;9.40;5.45;;;;;;;11.51;67.22;99288.28;2619041;54;20059;-65
2021/10/16 17:23:33;;;;;;;8.50;6.38;;;;;;;11.40;67.66;99287.78;2618726;54;20150;-65
2021/10/16 17:26:03;;;;;;;9.77;7.18;;;;;;;11.32;68.00;99287.88;2619180;54;20030;-65
2021/10/16 17:28:35;;;;;;;8.50;5.93;;;;;;;11.23;68.30;99282.88;2619083;54;20549;-65
2021/10/16 17:31:05;;;;;;;10.95;7.25;;;;;;;11.19;68.75;99294.84;2618941;54;20542;-65
2021/10/16 17:33:34;;;;;;;8.70;7.03;;;;;;;11.13;69.26;99288.44;2617938;54;20038;-64
2021/10/16 17:36:04;;;;;;;10.30;7.47;;;;;;;11.03;69.41;99285.28;2620031;54;20057;-65
2021/10/16 17:38:34;;;;;;;7.82;6.80;;;;;;;10.95;70.14;99294.13;2620392;54;20050;-65
2021/10/16 17:41:04;;;;;;;10.80;6.90;;;;;;;10.85;70.44;99293.56;2621633;31;20534;-65
2021/10/16 17:43:36;;;;;;;9.73;6.53;;;;;;;10.80;70.85;99295.94;2619174;54;20046;-65
2021/10/16 17:46:06;;;;;;;9.50;7.20;;;;;;;10.73;71.15;99300.31;2619819;54;20534;-64
2021/10/16 17:48:35;;;;;;;8.88;7.03;;;;;;;10.71;71.40;99308.44;2620925;54;20026;-64
2021/10/16 17:51:05;;;;;;;9.93;7.28;;;;;;;10.70;71.41;99308.63;2619187;54;20081;-65
2021/10/16 17:53:35;;;;;;;8.93;7.10;;;;;;;10.72;71.51;99303.97;2618393;54;20564;-65
2021/10/16 17:56:05;;;;;;;12.10;8.00;;;;;;;10.75;71.16;99303.59;2618277;54;20039;-65
2021/10/16 17:58:37;;;;;;;14.57;8.32;;;;;;;10.78;71.43;99303.25;2618795;39;20442;-65
2021/10/16 18:01:07;;;;;;;12.90;9.23;;;;;;;10.80;70.92;99307.34;2618620;54;20041;-65
2021/10/16 18:03:37;;;;;;;13.85;9.07;;;;;;;10.72;71.05;99309.25;2619394;39;20458;-66
2021/10/16 18:06:07;;;;;;;11.35;8.50;;;;;;;10.67;71.59;99315.09;2619306;54;20054;-65
2021/10/16 18:08:38;;;;;;;10.27;7.35;;;;;;;10.64;71.51;99304.84;2619874;39;20757;-65
2021/10/16 18:11:09;;;;;;;10.25;7.63;;;;;;;10.69;71.69;99317.53;2618809;54;20030;-66
2021/10/16 18:13:42;;;;;;;9.85;8.20;;;;;;;10.71;71.60;99310.25;2618016;54;20035;-66
2021/10/16 18:16:12;;;;;;;13.45;9.75;;;;;;;10.70;71.16;99322.66;2618166;54;20053;-65
2021/10/16 18:18:41;;;;;;;11.68;8.75;;;;;;;10.64;71.21;99328.66;2618132;54;20069;-65
2021/10/16 18:21:11;;;;;;;12.82;8.85;;;;;;;10.54;71.11;99322.81;2618285;54;20034;-65
2021/10/16 18:23:41;;;;;;;10.65;9.43;;;;;;;10.41;71.63;99328.72;2618696;54;20042;-65
2021/10/16 18:26:13;;;;;;;14.45;9.90;;;;;;;10.26;71.73;99330.50;2618808;54;20030;-66
2021/10/16 18:28:45;;;;;;;11.98;10.35;;;;;;;10.20;72.32;99321.41;2618539;54;20027;-65
2021/10/16 18:31:14;;;;;;;13.43;10.20;;;;;;;10.11;72.36;99325.13;2618318;54;20027;-65
2021/10/16 18:33:46;;;;;;;14.90;9.48;;;;;;;10.04;72.82;99321.53;2617309;54;20038;-66
2021/10/16 18:36:17;;;;;;;13.40;9.98;;;;;;;10.00;72.75;99325.50;2618233;54;20035;-65
2021/10/16 18:38:47;;;;;;;11.98;9.48;;;;;;;9.99;72.85;99326.53;2618196;54;20034;-65
2021/10/16 18:41:17;;;;;;;13.43;9.93;;;;;;;10.01;72.90;99321.91;2618162;54;20083;-66
2021/10/16 18:43:49;;;;;;;13.85;9.25;;;;;;;9.94;73.37;99321.78;2617849;54;20026;-65
2021/10/16 18:46:19;;;;;;;10.70;8.77;;;;;;;9.80;73.60;99315.44;2618650;39;20399;-65
2021/10/16 18:48:48;;;;;;;10.85;8.98;;;;;;;9.78;73.72;99311.31;2617382;47;20558;-65
2021/10/16 18:51:18;;;;;;;12.50;9.60;;;;;;;9.75;73.66;99316.94;2618278;54;20038;-64
2021/10/16 18:53:48;;;;;;;10.13;8.45;;;;;;;9.68;73.97;99315.00;2617857;54;20574;-65
2021/10/16 18:56:18;;;;;;;10.80;9.10;;;;;;;9.68;73.82;99314.19;2617554;54;20061;-65
2021/10/16 18:58:50;;;;;;;10.55;9.30;;;;;;;9.61;74.02;99315.88;2618307;54;20550;-64
2021/10/16 19:01:20;;;;;;;14.88;9.55;;;;;;;9.52;74.09;99320.38;2618101;54;20042;-65
2021/10/16 19:03:50;;;;;;;12.10;10.30;;;;;;;9.45;74.46;99321.25;2617904;54;20022;-65
2021/10/16 19:06:20;;;;;;;11.65;9.25;;;;;;;9.39;74.43;99326.22;2617924;54;20150;-65
2021/10/16 19:08:50;;;;;;;11.68;9.55;;;;;;;9.34;74.46;99325.88;2618175;54;20441;-64
2021/10/16 19:11:20;;;;;;;15.95;11.02;;;;;;;9.29;74.57;99325.59;2618151;54;20030;-65
2021/10/16 19:13:52;;;;;;;30.15;18.35;;;;;;;9.23;75.07;99322.84;2617717;54;20126;-66
2021/10/16 19:16:22;;;;;;;64.15;30.17;;;;;;;9.18;75.18;99321.53;2617929;54;20030;-66
2021/10/16 19:18:51;;;;;;;87.68;37.17;;;;;;;9.18;74.89;99321.53;2617989;54;20030;-65
2021/10/16 19:21:21;;;;;;;47.38;25.95;;;;;;;9.20;75.00;99321.34;2617351;47;20085;-66
2021/10/16 19:23:51;;;;;;;29.50;17.90;;;;;;;9.17;75.37;99316.41;2617742;54;20034;-65
2021/10/16 19:26:21;;;;;;;25.02;14.82;;;;;;;9.14;75.30;99314.94;2618004;54;20142;-65
2021/10/16 19:28:53;;;;;;;22.98;14.65;;;;;;;9.13;75.09;99315.91;2618141;54;20046;-66
2021/10/16 19:31:23;;;;;;;17.83;14.00;;;;;;;9.22;74.88;99315.88;2618650;39;20474;-67
2021/10/16 19:33:53;;;;;;;18.42;13.23;;;;;;;9.20;75.03;99315.25;2620420;39;20544;-66
2021/10/16 19:36:22;;;;;;;24.98;15.07;;;;;;;9.22;75.33;99315.88;2621343;54;20550;-66
2021/10/16 19:38:52;;;;;;;31.05;18.98;;;;;;;9.28;74.93;99316.03;2619506;54;20034;-65
2021/10/16 19:41:21;;;;;;;20.88;13.85;;;;;;;9.32;74.70;99306.78;2618206;54;20554;-66
2021/10/16 19:43:54;;;;;;;18.00;13.10;;;;;;;9.33;74.45;99318.97;2618106;54;20550;-65
2021/10/16 19:46:23;;;;;;;16.65;11.90;;;;;;;9.28;73.99;99312.59;2618698;39;20475;-65